Time;durP1;ratioP1;P1;durP2;ratioP2;P2;SDS_P1;SDS_P2;PMS_P1;PMS_P2;Temp;Humidity;BMP_temperature;BMP_pressure;BME280_temperature;BME280_humidity;BME280_pressure;Samples;Min_cycle;Max_cycle;Signal;HPM_P1;HPM_P2
2023/08/11 00:01:55;;;;;;;;;;;14.20;94.90;;;;;;5113558;28;19908;-71
2023/08/11 00:04:21;;;;;;;;;;;14.30;94.40;;;;;;5113590;28;20309;-69
2023/08/11 00:06:48;;;;;;;;;;;14.40;94.60;;;;;;5113571;28;19915;-70
2023/08/11 00:09:15;;;;;;;;;;;14.40;94.40;;;;;;5113512;28;20292;-69
2023/08/11 00:11:42;;;;;;;;;;;14.50;94.30;;;;;;5113630;28;19938;-68
2023/08/11 00:14:08;;;;;;;;;;;14.60;93.80;;;;;;5113550;28;20332;-69
2023/08/11 00:16:35;;;;;;;;;;;14.70;93.80;;;;;;5113629;28;19959;-69
2023/08/11 00:19:02;;;;;;;;;;;14.60;93.90;;;;;;5113271;28;19908;-69
2023/08/11 00:21:28;;;;;;;;;;;14.80;94.00;;;;;;5113476;28;19953;-67
2023/08/11 00:23:55;;;;;;;;;;;14.90;93.40;;;;;;5113273;28;20275;-69
2023/08/11 00:26:22;;;;;;;;;;;15.00;93.30;;;;;;5113738;28;19912;-80
2023/08/11 00:28:50;;;;;;;;;;;15.00;93.20;;;;;;5113559;28;19908;-64
2023/08/11 00:31:17;;;;;;;;;;;15.10;93.00;;;;;;5113180;28;19912;-76
2023/08/11 00:33:46;;;;;;;;;;;15.10;93.00;;;;;;5113203;28;19930;-71
2023/08/11 00:36:13;;;;;;;;;;;15.20;92.80;;;;;;5112922;28;19927;-71
2023/08/11 00:38:40;;;;;;;;;;;15.30;92.80;;;;;;5113505;28;19915;-76
2023/08/11 00:41:07;;;;;;;;;;;15.30;92.60;;;;;;5113363;28;19908;-73
2023/08/11 00:43:34;;;;;;;;;;;15.20;92.60;;;;;;5112761;28;19942;-71
2023/08/11 00:46:10;;;;;;;;;;;15.40;92.50;;;;;;5112381;28;20282;-74
2023/08/11 00:48:38;;;;;;;;;;;15.50;92.20;;;;;;5113275;28;19911;-71
2023/08/11 00:51:05;;;;;;;;;;;15.50;92.40;;;;;;5112729;28;19947;-72
2023/08/11 00:53:36;;;;;;;;;;;15.60;92.20;;;;;;5112697;28;19907;-72
2023/08/11 00:56:03;;;;;;;;;;;15.70;91.60;;;;;;5112520;28;19908;-73
2023/08/11 00:58:30;;;;;;;;;;;15.80;91.80;;;;;;5113044;28;20352;-72
2023/08/11 01:00:58;;;;;;;;;;;16.00;92.10;;;;;;5112886;28;19934;-74
2023/08/11 01:03:25;;;;;;;;;;;16.10;91.90;;;;;;5112712;28;19908;-73
2023/08/11 01:06:12;;;;;;;;;;;16.20;91.70;;;;;;5112915;28;20398;-74
2023/08/11 01:08:46;;;;;;;;;;;16.30;91.80;;;;;;5091040;28;19931;-72
2023/08/11 01:11:21;;;;;;;;;;;16.30;91.60;;;;;;5112910;28;20371;-75
2023/08/11 01:14:00;;;;;;;;;;;16.40;91.70;;;;;;5113059;28;19919;-73
2023/08/11 01:16:27;;;;;;;;;;;16.50;91.20;;;;;;5113071;28;19915;-73
2023/08/11 01:18:54;;;;;;;;;;;16.50;91.10;;;;;;5112989;28;19961;-71
2023/08/11 01:21:21;;;;;;;;;;;16.60;91.10;;;;;;5112963;28;19915;-72
2023/08/11 01:23:48;;;;;;;;;;;16.70;91.50;;;;;;5113074;28;19912;-69
2023/08/11 01:26:15;;;;;;;;;;;16.80;90.70;;;;;;5113113;28;19908;-71
2023/08/11 01:28:42;;;;;;;;;;;17.00;90.00;;;;;;5112786;28;19908;-73
2023/08/11 01:31:10;;;;;;;;;;;17.10;90.10;;;;;;5112656;28;19907;-71
2023/08/11 01:33:37;;;;;;;;;;;17.20;89.90;;;;;;5112756;28;19995;-73
2023/08/11 01:36:05;;;;;;;;;;;17.20;89.50;;;;;;5112582;28;20416;-71
2023/08/11 01:38:32;;;;;;;;;;;17.30;88.80;;;;;;5112525;28;19911;-71
2023/08/11 01:40:58;;;;;;;;;;;17.50;88.50;;;;;;5112722;28;19908;-68
2023/08/11 01:43:27;;;;;;;;;;;17.60;87.60;;;;;;5112553;28;19920;-71
2023/08/11 01:45:53;;;;;;;;;;;17.80;87.70;;;;;;5112844;28;19916;-74
2023/08/11 01:48:21;;;;;;;;;;;17.90;87.50;;;;;;5115698;28;19915;-73
2023/08/11 01:50:47;;;;;;;;;;;18.00;86.90;;;;;;5116267;28;19908;-67
2023/08/11 01:53:14;;;;;;;;;;;18.10;87.00;;;;;;5116164;28;19914;-71
2023/08/11 01:55:41;;;;;;;;;;;18.20;86.10;;;;;;5116040;28;19947;-70
2023/08/11 01:58:07;;;;;;;;;;;18.40;86.10;;;;;;5116064;28;19908;-67
2023/08/11 02:00:34;;;;;;;;;;;18.50;85.20;;;;;;5098050;28;20284;-69
2023/08/11 02:03:02;;;;;;;;;;;18.50;84.50;;;;;;5116485;28;19929;-73
2023/08/11 02:05:29;;;;;;;;;;;18.80;85.70;;;;;;5115927;28;20353;-69
2023/08/11 02:07:55;;;;;;;;;;;18.80;80.80;;;;;;5115854;28;20012;-74
2023/08/11 02:10:22;;;;;;;;;;;19.00;80.10;;;;;;5116119;28;19911;-71
2023/08/11 02:12:49;;;;;;;;;;;19.20;78.80;;;;;;5115587;28;19953;-75
2023/08/11 02:15:15;;;;;;;;;;;19.20;79.20;;;;;;5115703;28;19915;-73
2023/08/11 02:17:42;;;;;;;;;;;19.30;78.70;;;;;;5116358;28;19968;-72
2023/08/11 02:20:21;;;;;;;;;;;19.50;79.00;;;;;;5115939;28;20425;-73
2023/08/11 02:22:48;;;;;;;;;;;19.60;78.50;;;;;;5097570;28;19955;-70
2023/08/11 02:25:15;;;;;;;;;;;19.70;78.40;;;;;;5115638;28;20341;-72
2023/08/11 02:27:43;;;;;;;;;;;19.70;77.80;;;;;;5115783;28;20360;-72
2023/08/11 02:30:11;;;;;;;;;;;19.60;77.70;;;;;;5115463;28;19912;-71
2023/08/11 02:32:38;;;;;;;;;;;19.70;76.80;;;;;;5115491;28;20276;-72
2023/08/11 02:35:06;;;;;;;;;;;19.70;76.60;;;;;;5115204;28;19914;-71
2023/08/11 02:37:33;;;;;;;;;;;19.80;78.00;;;;;;5115497;28;19908;-73
2023/08/11 02:39:59;;;;;;;;;;;20.10;77.10;;;;;;5115483;28;19915;-73
2023/08/11 02:42:26;;;;;;;;;;;20.80;76.20;;;;;;5115416;28;19934;-73
2023/08/11 02:44:53;;;;;;;;;;;21.00;74.10;;;;;;5115269;28;19920;-71
2023/08/11 02:47:20;;;;;;;;;;;21.60;75.30;;;;;;5115280;28;19912;-72
2023/08/11 02:49:46;;;;;;;;;;;21.80;73.90;;;;;;5115126;28;20284;-74
2023/08/11 02:52:14;;;;;;;;;;;22.30;70.30;;;;;;5115555;28;19914;-72
2023/08/11 02:54:40;;;;;;;;;;;22.60;70.30;;;;;;5115153;28;19920;-71
2023/08/11 02:57:07;;;;;;;;;;;22.80;68.60;;;;;;5115098;28;19915;-70
2023/08/11 02:59:34;;;;;;;;;;;23.10;69.50;;;;;;5114973;28;19943;-71
2023/08/11 03:02:01;;;;;;;;;;;23.50;67.60;;;;;;5115163;28;19908;-72
2023/08/11 03:04:28;;;;;;;;;;;23.60;66.80;;;;;;5114859;28;20030;-73
2023/08/11 03:06:55;;;;;;;;;;;24.30;65.70;;;;;;5096449;28;19995;-74
2023/08/11 03:09:21;;;;;;;;;;;24.90;64.50;;;;;;5114573;28;19914;-74
2023/08/11 03:11:48;;;;;;;;;;;24.70;64.40;;;;;;5114697;28;19908;-73
2023/08/11 03:14:15;;;;;;;;;;;25.30;64.00;;;;;;5114820;28;19908;-72
2023/08/11 03:16:41;;;;;;;;;;;25.40;63.60;;;;;;5114588;28;19908;-75
2023/08/11 03:19:08;;;;;;;;;;;26.30;61.90;;;;;;5114930;28;19908;-72
2023/08/11 03:21:35;;;;;;;;;;;27.40;61.10;;;;;;5114773;28;19915;-74
2023/08/11 03:24:01;;;;;;;;;;;29.30;59.80;;;;;;5114530;28;20010;-77
2023/08/11 03:26:28;;;;;;;;;;;31.00;58.10;;;;;;5114501;28;19914;-74
2023/08/11 03:28:55;;;;;;;;;;;32.00;54.40;;;;;;5114442;28;19908;-72
2023/08/11 03:31:21;;;;;;;;;;;32.20;54.00;;;;;;5114498;28;19908;-74
2023/08/11 03:33:48;;;;;;;;;;;33.20;52.60;;;;;;5114594;28;19995;-75
2023/08/11 03:36:15;;;;;;;;;;;33.10;52.10;;;;;;5114369;28;19914;-73
2023/08/11 03:38:41;;;;;;;;;;;34.00;51.20;;;;;;5114402;28;19953;-74
2023/08/11 03:41:08;;;;;;;;;;;34.20;50.00;;;;;;5114388;28;19908;-74
2023/08/11 03:43:34;;;;;;;;;;;34.40;48.80;;;;;;5114015;28;20411;-72
2023/08/11 03:46:01;;;;;;;;;;;33.00;49.50;;;;;;5114251;28;19915;-73
2023/08/11 03:48:28;;;;;;;;;;;33.40;49.90;;;;;;5114033;28;19907;-73
2023/08/11 03:50:59;;;;;;;;;;;34.00;50.70;;;;;;5113940;28;19912;-75
2023/08/11 03:53:25;;;;;;;;;;;34.40;49.60;;;;;;5113778;28;19908;-76
2023/08/11 03:55:52;;;;;;;;;;;33.80;50.70;;;;;;5113871;28;19914;-77
2023/08/11 03:58:20;;;;;;;;;;;34.40;49.50;;;;;;5113775;28;19908;-74
2023/08/11 04:00:48;;;;;;;;;;;34.40;49.10;;;;;;5113994;28;20279;-76
2023/08/11 04:03:14;;;;;;;;;;;32.90;50.50;;;;;;5113896;28;19907;-72
2023/08/11 04:05:42;;;;;;;;;;;33.40;49.20;;;;;;5113753;28;20295;-75
2023/08/11 04:08:08;;;;;;;;;;;33.30;48.60;;;;;;5113942;28;20010;-75
2023/08/11 04:10:35;;;;;;;;;;;34.10;48.40;;;;;;5113350;28;19908;-73
2023/08/11 04:13:02;;;;;;;;;;;34.30;46.60;;;;;;5113625;28;19911;-74
2023/08/11 04:15:31;;;;;;;;;;;34.20;47.10;;;;;;5113514;28;19908;-75
2023/08/11 04:17:57;;;;;;;;;;;33.60;46.80;;;;;;5113708;28;19943;-75
2023/08/11 04:20:24;;;;;;;;;;;32.70;47.90;;;;;;5113811;28;20370;-75
2023/08/11 04:22:51;;;;;;;;;;;32.50;47.80;;;;;;5113596;28;20391;-75
2023/08/11 04:25:17;;;;;;;;;;;32.40;48.60;;;;;;5113326;28;19923;-75
2023/08/11 04:27:45;;;;;;;;;;;32.90;47.80;;;;;;5113648;28;19908;-78
2023/08/11 04:30:12;;;;;;;;;;;32.90;47.90;;;;;;5113715;28;19908;-71
2023/08/11 04:32:38;;;;;;;;;;;33.00;46.80;;;;;;5095509;28;20292;-77
2023/08/11 04:35:07;;;;;;;;;;;32.70;46.70;;;;;;5113276;28;19915;-75
2023/08/11 04:37:34;;;;;;;;;;;32.90;48.10;;;;;;5113390;28;20283;-74
2023/08/11 04:40:05;;;;;;;;;;;33.20;47.40;;;;;;5113103;28;19908;-74
2023/08/11 04:42:32;;;;;;;;;;;33.30;46.80;;;;;;5113499;28;20368;-75
2023/08/11 04:44:58;;;;;;;;;;;30.50;48.10;;;;;;5113049;28;19920;-75
2023/08/11 04:47:25;;;;;;;;;;;30.30;49.30;;;;;;5113521;28;19999;-73
2023/08/11 04:49:52;;;;;;;;;;;30.60;50.60;;;;;;5113128;28;19908;-73
2023/08/11 04:52:18;;;;;;;;;;;31.10;52.30;;;;;;5113354;28;19908;-73
2023/08/11 04:54:45;;;;;;;;;;;30.70;52.90;;;;;;5113260;28;20357;-74
2023/08/11 04:57:12;;;;;;;;;;;30.30;53.70;;;;;;5113178;28;19918;-72
2023/08/11 04:59:38;;;;;;;;;;;29.00;55.40;;;;;;5113462;28;19990;-73
2023/08/11 05:02:05;;;;;;;;;;;27.70;57.50;;;;;;5112830;28;19915;-73
2023/08/11 05:04:33;;;;;;;;;;;26.30;59.80;;;;;;5112826;28;19916;-74
2023/08/11 05:07:00;;;;;;;;;;;25.40;61.70;;;;;;5113183;28;19912;-73
2023/08/11 05:09:26;;;;;;;;;;;25.00;62.20;;;;;;5112920;28;19952;-73
2023/08/11 05:11:53;;;;;;;;;;;24.10;65.50;;;;;;5113281;28;19908;-72
2023/08/11 05:14:20;;;;;;;;;;;23.90;66.20;;;;;;5112828;28;19918;-75
2023/08/11 05:16:46;;;;;;;;;;;23.60;67.70;;;;;;5112912;28;19912;-74
2023/08/11 05:19:13;;;;;;;;;;;24.30;66.30;;;;;;5113066;28;19953;-75
2023/08/11 05:21:40;;;;;;;;;;;26.00;63.90;;;;;;5095321;28;20322;-72
2023/08/11 05:24:07;;;;;;;;;;;27.30;62.20;;;;;;5116185;28;19951;-73
2023/08/11 05:26:34;;;;;;;;;;;28.30;60.80;;;;;;5116314;28;19912;-73
2023/08/11 05:29:01;;;;;;;;;;;28.80;59.30;;;;;;5116855;28;19920;-74
2023/08/11 05:31:27;;;;;;;;;;;28.30;59.60;;;;;;5116443;28;19907;-71
2023/08/11 05:33:55;;;;;;;;;;;28.10;60.00;;;;;;5116512;28;19907;-73
2023/08/11 05:36:21;;;;;;;;;;;27.40;61.20;;;;;;5116555;28;19911;-74
2023/08/11 05:38:48;;;;;;;;;;;26.80;61.90;;;;;;5116396;28;19983;-73
2023/08/11 05:41:14;;;;;;;;;;;26.80;63.50;;;;;;5116572;28;19914;-74
2023/08/11 05:43:41;;;;;;;;;;;26.70;63.00;;;;;;5116392;28;19920;-73
2023/08/11 05:46:08;;;;;;;;;;;26.50;62.30;;;;;;5116307;28;19912;-74
2023/08/11 05:48:38;;;;;;;;;;;25.90;64.10;;;;;;5116038;28;19938;-74
2023/08/11 05:51:05;;;;;;;;;;;25.70;63.80;;;;;;5097812;28;19915;-72
2023/08/11 05:53:31;;;;;;;;;;;25.00;65.00;;;;;;5116291;28;19931;-72
2023/08/11 05:55:58;;;;;;;;;;;23.90;66.00;;;;;;5116339;28;19908;-74
2023/08/11 05:58:25;;;;;;;;;;;23.20;69.80;;;;;;5116468;28;19969;-73
2023/08/11 06:00:51;;;;;;;;;;;23.70;69.60;;;;;;5115356;28;20360;-74
2023/08/11 06:03:18;;;;;;;;;;;24.80;67.60;;;;;;5096968;28;19927;-75
2023/08/11 06:05:45;;;;;;;;;;;25.70;65.90;;;;;;5107777;28;20050;-75
2023/08/11 06:08:12;;;;;;;;;;;26.70;64.50;;;;;;5092810;28;19911;-74
2023/08/11 06:10:38;;;;;;;;;;;27.70;62.80;;;;;;5115531;28;19914;-72
2023/08/11 06:13:05;;;;;;;;;;;28.80;60.90;;;;;;5115098;28;19908;-74
2023/08/11 06:15:32;;;;;;;;;;;28.40;61.70;;;;;;5114553;28;19961;-69
2023/08/11 06:17:59;;;;;;;;;;;28.00;62.00;;;;;;5096030;28;19919;-73
2023/08/11 06:20:25;;;;;;;;;;;28.10;61.70;;;;;;5094898;28;19914;-71
2023/08/11 06:22:52;;;;;;;;;;;28.40;60.60;;;;;;5095395;28;19909;-70
2023/08/11 06:25:18;;;;;;;;;;;28.40;60.10;;;;;;5114415;28;20053;-75
2023/08/11 06:27:45;;;;;;;;;;;27.80;61.10;;;;;;5112725;28;19919;-74
2023/08/11 06:30:15;;;;;;;;;;;27.80;61.70;;;;;;5114489;28;20015;-71
2023/08/11 06:32:43;;;;;;;;;;;27.60;60.80;;;;;;5113543;28;19934;-76
2023/08/11 06:35:09;;;;;;;;;;;26.80;62.60;;;;;;5114450;28;19964;-76
2023/08/11 06:37:36;;;;;;;;;;;26.00;63.20;;;;;;5107482;28;19927;-71
2023/08/11 06:40:03;;;;;;;;;;;25.10;64.50;;;;;;5094791;28;19947;-73
2023/08/11 06:42:30;;;;;;;;;;;24.10;66.50;;;;;;5114232;28;19912;-75
2023/08/11 06:44:56;;;;;;;;;;;23.40;67.60;;;;;;5105014;28;19920;-71
2023/08/11 06:47:23;;;;;;;;;;;22.90;68.60;;;;;;5112909;28;19912;-74
2023/08/11 06:49:50;;;;;;;;;;;22.60;69.80;;;;;;5114488;28;19908;-72
2023/08/11 06:52:17;;;;;;;;;;;22.00;70.90;;;;;;5114001;28;19915;-74
2023/08/11 06:54:43;;;;;;;;;;;21.40;72.30;;;;;;5110364;28;19979;-75
2023/08/11 06:57:11;;;;;;;;;;;20.90;73.10;;;;;;5101966;28;19970;-72
2023/08/11 06:59:38;;;;;;;;;;;20.50;74.40;;;;;;5093644;28;19912;-75
2023/08/11 07:02:04;;;;;;;;;;;20.00;75.90;;;;;;5075615;28;20246;-76
2023/08/11 07:04:31;;;;;;;;;;;19.50;77.20;;;;;;5113541;28;19969;-78
2023/08/11 07:06:58;;;;;;;;;;;19.10;78.50;;;;;;5094998;28;19938;-73
2023/08/11 07:09:25;;;;;;;;;;;18.70;79.90;;;;;;5113944;28;19990;-74
2023/08/11 07:11:52;;;;;;;;;;;18.40;80.90;;;;;;5110704;28;19919;-73
2023/08/11 07:14:18;;;;;;;;;;;18.20;81.60;;;;;;5109754;28;19912;-74
2023/08/11 07:16:45;;;;;;;;;;;17.90;82.50;;;;;;5105189;28;19919;-70
2023/08/11 07:19:12;;;;;;;;;;;17.80;83.20;;;;;;5088939;28;19912;-73
2023/08/11 07:21:38;;;;;;;;;;;17.60;83.50;;;;;;5111178;28;19980;-74
2023/08/11 07:24:05;;;;;;;;;;;17.40;84.40;;;;;;5101681;28;19916;-73
2023/08/11 07:26:32;;;;;;;;;;;17.20;84.90;;;;;;5101711;28;19919;-70
2023/08/11 07:28:58;;;;;;;;;;;17.00;85.70;;;;;;5106339;28;19911;-71
2023/08/11 07:31:25;;;;;;;;;;;17.00;86.70;;;;;;5111822;28;19911;-75
2023/08/11 07:33:52;;;;;;;;;;;16.90;87.10;;;;;;5103484;28;19954;-77
2023/08/11 07:36:20;;;;;;;;;;;16.80;87.50;;;;;;5101477;28;19949;-75
2023/08/11 07:38:47;;;;;;;;;;;16.70;88.20;;;;;;5112140;28;19911;-73
2023/08/11 07:41:13;;;;;;;;;;;16.60;88.70;;;;;;5109164;28;19934;-67
2023/08/11 07:43:40;;;;;;;;;;;16.50;89.40;;;;;;5110700;28;19923;-73
2023/08/11 07:46:06;;;;;;;;;;;16.50;90.10;;;;;;5106923;28;20416;-71
2023/08/11 07:48:33;;;;;;;;;;;16.40;90.20;;;;;;5112191;28;19907;-71
2023/08/11 07:51:00;;;;;;;;;;;16.40;90.20;;;;;;5109366;28;19915;-70
2023/08/11 07:53:26;;;;;;;;;;;16.30;90.50;;;;;;5111605;28;20376;-72
2023/08/11 07:55:53;;;;;;;;;;;16.20;90.70;;;;;;5102969;28;19919;-74
2023/08/11 07:58:20;;;;;;;;;;;16.10;91.00;;;;;;5111375;28;20423;-74
2023/08/11 08:00:46;;;;;;;;;;;16.00;91.20;;;;;;5107999;28;19918;-74
2023/08/11 08:03:13;;;;;;;;;;;15.90;91.60;;;;;;5110896;28;19977;-70
2023/08/11 08:05:40;;;;;;;;;;;15.80;91.80;;;;;;5098263;28;19920;-73
2023/08/11 08:08:06;;;;;;;;;;;15.70;92.20;;;;;;5093108;28;20269;-72
2023/08/11 08:10:34;;;;;;;;;;;15.70;92.40;;;;;;5110069;28;19922;-78
2023/08/11 08:13:01;;;;;;;;;;;15.70;92.60;;;;;;5114956;27;19933;-76
2023/08/11 08:15:28;;;;;;;;;;;15.60;92.70;;;;;;5093979;28;20431;-79
2023/08/11 08:17:55;;;;;;;;;;;15.60;92.50;;;;;;5110500;28;19912;-75
2023/08/11 08:20:21;;;;;;;;;;;15.60;92.70;;;;;;5109930;28;19912;-79
2023/08/11 08:22:48;;;;;;;;;;;15.60;92.80;;;;;;5108966;28;20368;-73
2023/08/11 08:25:15;;;;;;;;;;;15.60;92.90;;;;;;5106337;28;19927;-76
2023/08/11 08:27:41;;;;;;;;;;;15.40;92.90;;;;;;5112138;28;20249;-78
2023/08/11 08:30:12;;;;;;;;;;;15.40;93.10;;;;;;5111934;28;19919;-79
2023/08/11 08:32:39;;;;;;;;;;;15.40;93.50;;;;;;5102371;28;20401;-73
2023/08/11 08:35:07;;;;;;;;;;;15.40;93.40;;;;;;5108461;28;19947;-72
2023/08/11 08:37:34;;;;;;;;;;;15.40;93.80;;;;;;5111496;28;19935;-78
2023/08/11 08:40:00;;;;;;;;;;;15.30;93.50;;;;;;5102158;28;19912;-76
2023/08/11 08:42:28;;;;;;;;;;;15.30;93.70;;;;;;5110615;28;19934;-71
2023/08/11 08:44:54;;;;;;;;;;;15.30;93.90;;;;;;5110280;28;20683;-76
2023/08/11 08:47:22;;;;;;;;;;;15.20;93.90;;;;;;5112349;27;19912;-70
2023/08/11 08:49:49;;;;;;;;;;;15.20;94.20;;;;;;5109787;28;20065;-71
2023/08/11 08:52:16;;;;;;;;;;;15.20;94.30;;;;;;5106238;28;19912;-77
2023/08/11 08:54:46;;;;;;;;;;;15.10;94.50;;;;;;5091026;28;19912;-72
2023/08/11 08:57:13;;;;;;;;;;;15.10;94.40;;;;;;5107202;28;19908;-74
2023/08/11 08:59:40;;;;;;;;;;;15.10;94.30;;;;;;5112271;28;19912;-75
2023/08/11 09:02:06;;;;;;;;;;;15.10;94.50;;;;;;5111566;28;19914;-71
2023/08/11 09:04:34;;;;;;;;;;;15.00;94.70;;;;;;5097357;28;19920;-69
2023/08/11 09:07:01;;;;;;;;;;;15.00;94.50;;;;;;5094167;28;19909;-71
2023/08/11 09:09:28;;;;;;;;;;;15.00;94.70;;;;;;5090729;28;19913;-76
2023/08/11 09:11:55;;;;;;;;;;;15.00;94.70;;;;;;5105575;28;19907;-68
2023/08/11 09:14:22;;;;;;;;;;;15.00;94.70;;;;;;5110049;28;20802;-75
2023/08/11 09:16:53;;;;;;;;;;;14.90;94.70;;;;;;5110560;28;20366;-69
2023/08/11 09:19:20;;;;;;;;;;;15.00;94.90;;;;;;5091697;28;19954;-73
2023/08/11 09:21:47;;;;;;;;;;;15.00;94.90;;;;;;5105720;28;19916;-70
2023/08/11 09:24:15;;;;;;;;;;;14.90;95.00;;;;;;5085791;28;19920;-75
2023/08/11 09:26:43;;;;;;;;;;;14.80;95.00;;;;;;5107771;28;19908;-73
2023/08/11 09:29:10;;;;;;;;;;;14.90;95.30;;;;;;5110048;28;19915;-75
2023/08/11 09:31:38;;;;;;;;;;;14.90;95.30;;;;;;5108924;28;19915;-71
2023/08/11 09:34:12;;;;;;;;;;;14.80;95.50;;;;;;5099400;28;19936;-69
2023/08/11 09:36:39;;;;;;;;;;;14.80;95.50;;;;;;5094419;28;20352;-70
2023/08/11 09:39:11;;;;;;;;;;;14.80;95.40;;;;;;5112042;28;19918;-73
2023/08/11 09:41:41;;;;;;;;;;;14.80;95.90;;;;;;5092283;28;19926;-75
2023/08/11 09:44:08;;;;;;;;;;;14.70;95.80;;;;;;5106550;28;19994;-72
2023/08/11 09:46:38;;;;;;;;;;;14.70;95.80;;;;;;5097766;28;20291;-73
2023/08/11 09:49:05;;;;;;;;;;;14.70;95.90;;;;;;5072943;28;20343;-72
2023/08/11 09:51:33;;;;;;;;;;;14.60;95.90;;;;;;5084809;28;19915;-74
2023/08/11 09:54:02;;;;;;;;;;;14.70;96.00;;;;;;5108071;28;19911;-68
2023/08/11 09:56:31;;;;;;;;;;;14.70;96.00;;;;;;5105915;28;19908;-74
2023/08/11 09:58:58;;;;;;;;;;;14.60;96.10;;;;;;5111281;28;19943;-75
2023/08/11 10:01:25;;;;;;;;;;;14.70;96.30;;;;;;5092741;28;19908;-73
2023/08/11 10:03:52;;;;;;;;;;;14.60;96.30;;;;;;5100147;28;19995;-76
2023/08/11 10:06:25;;;;;;;;;;;14.60;96.60;;;;;;5099172;28;19908;-74
2023/08/11 10:08:53;;;;;;;;;;;14.60;96.40;;;;;;5104858;28;19935;-74
2023/08/11 10:11:20;;;;;;;;;;;14.60;96.70;;;;;;5094069;28;20327;-75
2023/08/11 10:13:47;;;;;;;;;;;14.70;96.90;;;;;;5110964;28;20319;-76
2023/08/11 10:16:14;;;;;;;;;;;14.60;96.90;;;;;;5108658;28;19919;-70
2023/08/11 10:18:42;;;;;;;;;;;14.60;96.80;;;;;;5114613;27;19942;-75
2023/08/11 10:21:09;;;;;;;;;;;14.50;96.70;;;;;;5111962;28;20002;-77
2023/08/11 10:23:38;;;;;;;;;;;14.50;97.00;;;;;;5097478;28;19959;-72
2023/08/11 10:26:05;;;;;;;;;;;14.40;96.80;;;;;;5108320;28;19971;-76
2023/08/11 10:28:32;;;;;;;;;;;14.40;96.80;;;;;;5077345;28;19915;-75
2023/08/11 10:31:01;;;;;;;;;;;14.30;96.70;;;;;;5111477;28;19927;-72
2023/08/11 10:33:31;;;;;;;;;;;14.30;96.80;;;;;;5104756;27;19918;-72
2023/08/11 10:36:00;;;;;;;;;;;14.30;97.00;;;;;;5112849;28;19919;-73
2023/08/11 10:38:30;;;;;;;;;;;14.30;97.00;;;;;;5112517;28;19912;-75
2023/08/11 10:41:09;;;;;;;;;;;14.20;96.90;;;;;;5113651;28;19918;-73
2023/08/11 10:43:43;;;;;;;;;;;14.20;97.40;;;;;;5103940;27;19959;-75
2023/08/11 10:46:23;;;;;;;;;;;14.30;97.70;;;;;;5087883;28;19975;-76
2023/08/11 10:48:51;;;;;;;;;;;14.30;97.70;;;;;;5110464;27;19916;-77
2023/08/11 10:51:37;;;;;;;;;;;14.20;97.90;;;;;;5113578;28;19915;-72
2023/08/11 10:54:07;;;;;;;;;;;14.20;98.10;;;;;;5112370;28;19912;-74
2023/08/11 10:56:34;;;;;;;;;;;14.00;98.30;;;;;;5106166;27;19916;-68
2023/08/11 10:59:05;;;;;;;;;;;14.10;98.60;;;;;;5108923;27;19916;-74
2023/08/11 11:01:35;;;;;;;;;;;14.10;98.80;;;;;;5092128;28;19912;-74
2023/08/11 11:04:02;;;;;;;;;;;14.00;99.10;;;;;;5100450;28;19916;-75
2023/08/11 11:06:29;;;;;;;;;;;13.90;99.20;;;;;;5099514;28;19935;-77
2023/08/11 11:08:56;;;;;;;;;;;13.90;99.50;;;;;;5106563;27;19912;-76
2023/08/11 11:11:23;;;;;;;;;;;13.90;99.60;;;;;;5109026;28;20271;-69
2023/08/11 11:13:50;;;;;;;;;;;13.90;99.70;;;;;;5105267;27;19916;-73
2023/08/11 11:16:17;;;;;;;;;;;13.80;99.70;;;;;;5094288;28;19916;-76
2023/08/11 11:18:47;;;;;;;;;;;13.80;99.90;;;;;;5111368;28;19916;-74
2023/08/11 11:21:14;;;;;;;;;;;13.70;99.90;;;;;;5109776;28;20703;-72
2023/08/11 11:23:47;;;;;;;;;;;13.70;99.90;;;;;;5110243;28;19926;-69
2023/08/11 11:26:16;;;;;;;;;;;13.60;99.90;;;;;;5104113;28;20004;-71
2023/08/11 11:28:42;;;;;;;;;;;13.60;99.90;;;;;;5110095;27;19915;-75
2023/08/11 11:31:09;;;;;;;;;;;13.60;99.90;;;;;;5089305;28;19963;-72
2023/08/11 11:33:36;;;;;;;;;;;13.50;99.90;;;;;;5089726;28;19912;-75
2023/08/11 11:36:03;;;;;;;;;;;13.50;99.90;;;;;;5111043;28;20027;-76
2023/08/11 11:38:29;;;;;;;;;;;13.40;99.90;;;;;;5111767;28;19908;-75
2023/08/11 11:40:56;;;;;;;;;;;13.40;99.90;;;;;;5110870;28;19961;-67
2023/08/11 11:43:23;;;;;;;;;;;13.30;99.90;;;;;;5110573;28;19926;-70
2023/08/11 11:45:52;;;;;;;;;;;13.20;99.90;;;;;;5110019;28;20309;-77
2023/08/11 11:48:21;;;;;;;;;;;13.10;99.90;;;;;;5107976;28;19916;-73
2023/08/11 11:50:48;;;;;;;;;;;13.10;99.90;;;;;;5092767;28;19920;-74
2023/08/11 11:53:15;;;;;;;;;;;13.00;99.90;;;;;;5109845;28;20007;-75
2023/08/11 11:55:46;;;;;;;;;;;13.00;99.90;;;;;;5091746;28;19954;-71
2023/08/11 11:58:16;;;;;;;;;;;13.00;99.90;;;;;;5102748;28;20015;-71
2023/08/11 12:00:45;;;;;;;;;;;12.90;99.90;;;;;;5089032;28;19912;-71
2023/08/11 12:03:12;;;;;;;;;;;12.90;99.90;;;;;;5107610;28;19958;-72
2023/08/11 12:05:39;;;;;;;;;;;12.90;99.90;;;;;;5092072;28;20404;-73
2023/08/11 12:08:23;;;;;;;;;;;12.90;99.90;;;;;;5110518;28;19915;-75
2023/08/11 12:10:50;;;;;;;;;;;12.90;99.90;;;;;;5110384;27;19919;-71
2023/08/11 12:13:17;;;;;;;;;;;12.80;99.90;;;;;;5109257;28;19912;-72
2023/08/11 12:15:47;;;;;;;;;;;12.80;99.90;;;;;;5093063;28;19912;-73
2023/08/11 12:18:13;;;;;;;;;;;12.80;99.90;;;;;;5090388;28;19916;-71
2023/08/11 12:20:40;;;;;;;;;;;12.70;99.90;;;;;;5105890;27;19963;-73
2023/08/11 12:23:07;;;;;;;;;;;12.80;99.90;;;;;;5105789;28;20314;-69
2023/08/11 12:25:34;;;;;;;;;;;12.80;99.90;;;;;;5106264;28;20291;-71
2023/08/11 12:28:03;;;;;;;;;;;12.70;99.90;;;;;;5106184;28;19914;-74
2023/08/11 12:30:30;;;;;;;;;;;12.70;99.90;;;;;;5085836;28;19912;-70
2023/08/11 12:32:57;;;;;;;;;;;12.70;99.90;;;;;;5109131;28;19938;-73
2023/08/11 12:35:24;;;;;;;;;;;12.70;99.90;;;;;;5107518;28;19919;-71
2023/08/11 12:37:51;;;;;;;;;;;12.60;99.90;;;;;;5091200;28;19916;-71
2023/08/11 12:40:18;;;;;;;;;;;12.50;99.90;;;;;;5103963;28;19981;-72
2023/08/11 12:42:45;;;;;;;;;;;12.60;99.90;;;;;;5108645;28;19912;-74
2023/08/11 12:45:12;;;;;;;;;;;12.50;99.90;;;;;;5103721;28;19923;-70
2023/08/11 12:47:38;;;;;;;;;;;12.50;99.90;;;;;;5110431;28;19919;-73
2023/08/11 12:50:05;;;;;;;;;;;12.40;99.90;;;;;;5110965;28;19911;-75
2023/08/11 12:52:32;;;;;;;;;;;12.40;99.90;;;;;;5109708;28;20328;-74
2023/08/11 12:54:58;;;;;;;;;;;12.30;99.90;;;;;;5109933;28;19908;-73
2023/08/11 12:57:25;;;;;;;;;;;12.30;99.90;;;;;;5111206;28;19908;-73
2023/08/11 12:59:52;;;;;;;;;;;12.30;99.90;;;;;;5092419;28;19908;-74
2023/08/11 13:02:18;;;;;;;;;;;12.20;99.90;;;;;;5099850;28;19919;-73
2023/08/11 13:04:45;;;;;;;;;;;12.30;99.90;;;;;;5107731;28;19915;-74
2023/08/11 13:07:12;;;;;;;;;;;12.20;99.90;;;;;;5093505;28;20055;-75
2023/08/11 13:09:38;;;;;;;;;;;12.30;99.90;;;;;;5112089;28;20002;-72
2023/08/11 13:12:11;;;;;;;;;;;12.20;99.90;;;;;;5111772;28;20086;-71
2023/08/11 13:14:39;;;;;;;;;;;12.20;99.90;;;;;;5091100;28;20008;-68
2023/08/11 13:17:06;;;;;;;;;;;12.10;99.90;;;;;;5111868;28;19915;-70
2023/08/11 13:19:32;;;;;;;;;;;12.10;99.90;;;;;;5110104;28;20629;-76
2023/08/11 13:22:04;;;;;;;;;;;12.10;99.90;;;;;;5103370;28;19919;-68
2023/08/11 13:24:32;;;;;;;;;;;12.00;99.90;;;;;;5105507;28;19915;-72
2023/08/11 13:26:58;;;;;;;;;;;12.00;99.90;;;;;;5112291;28;19931;-74
2023/08/11 13:29:25;;;;;;;;;;;12.00;99.90;;;;;;5093487;28;19915;-72
2023/08/11 13:31:52;;;;;;;;;;;12.00;99.90;;;;;;5109600;28;20422;-76
2023/08/11 13:34:18;;;;;;;;;;;11.90;99.90;;;;;;5111476;28;19912;-75
2023/08/11 13:36:45;;;;;;;;;;;12.00;99.90;;;;;;5111948;28;20506;-75
2023/08/11 13:39:12;;;;;;;;;;;11.90;99.90;;;;;;5110989;28;19916;-75
2023/08/11 13:41:40;;;;;;;;;;;11.90;99.90;;;;;;5105915;28;19924;-75
2023/08/11 13:44:07;;;;;;;;;;;11.80;99.90;;;;;;5094213;28;20011;-75
2023/08/11 13:46:33;;;;;;;;;;;11.90;99.90;;;;;;5098945;28;19977;-75
2023/08/11 13:49:00;;;;;;;;;;;11.70;99.90;;;;;;5097184;28;19930;-70
2023/08/11 13:51:27;;;;;;;;;;;11.80;99.90;;;;;;5108924;28;19912;-71
2023/08/11 13:53:53;;;;;;;;;;;11.80;99.90;;;;;;5104088;28;19908;-75
2023/08/11 13:56:20;;;;;;;;;;;11.60;99.90;;;;;;5115644;28;19907;-70
2023/08/11 13:58:47;;;;;;;;;;;11.70;99.90;;;;;;5111976;28;20372;-72
2023/08/11 14:01:13;;;;;;;;;;;11.60;99.90;;;;;;5096020;28;19908;-74
2023/08/11 14:03:40;;;;;;;;;;;11.50;99.90;;;;;;5108115;28;19912;-73
2023/08/11 14:06:07;;;;;;;;;;;11.60;99.90;;;;;;5113987;28;19938;-73
2023/08/11 14:08:34;;;;;;;;;;;11.50;99.90;;;;;;5097598;28;19912;-71
2023/08/11 14:11:00;;;;;;;;;;;11.50;99.90;;;;;;5115309;28;19915;-73
2023/08/11 14:13:27;;;;;;;;;;;11.50;99.90;;;;;;5110762;28;19918;-75
2023/08/11 14:15:55;;;;;;;;;;;11.40;99.90;;;;;;5115113;28;19972;-70
2023/08/11 14:18:21;;;;;;;;;;;11.40;99.90;;;;;;5112887;28;20022;-75